createdAt,value
2022-11-04T00:13:55.293Z,14.80
2022-11-04T00:28:59.648Z,14.80
2022-11-04T00:44:05.798Z,14.60
2022-11-04T00:59:13.443Z,14.70
2022-11-04T01:14:19.332Z,14.80
2022-11-04T01:29:23.702Z,14.80
2022-11-04T01:44:51.286Z,14.30
2022-11-04T01:59:58.070Z,14.60
2022-11-04T02:15:04.002Z,14.20
2022-11-04T02:30:11.965Z,14.60
2022-11-04T02:45:21.006Z,14.40
2022-11-04T03:00:26.011Z,14.60
2022-11-04T03:15:33.660Z,14.30
2022-11-04T03:30:43.632Z,14.50
2022-11-04T03:45:48.091Z,14.70
2022-11-04T04:01:01.400Z,14.60
2022-11-04T04:16:10.093Z,14.50
2022-11-04T04:31:37.299Z,14.30
2022-11-04T04:46:44.444Z,14.80
2022-11-04T05:01:48.909Z,14.70
2022-11-04T05:16:53.350Z,14.30
2022-11-04T05:31:58.265Z,14.50
2022-11-04T05:47:02.619Z,14.30
2022-11-04T06:02:07.397Z,14.50
2022-11-04T06:32:19.115Z,14.20
2022-11-04T06:47:24.887Z,14.60
2022-11-04T07:02:29.677Z,14.60
2022-11-04T07:17:34.176Z,14.40
2022-11-04T07:32:38.558Z,14.60
2022-11-04T07:47:42.888Z,14.60
2022-11-04T08:02:47.637Z,14.40
2022-11-04T08:17:52.006Z,14.00
2022-11-04T08:32:56.412Z,14.30
2022-11-04T08:48:05.294Z,14.20
2022-11-04T09:03:10.433Z,14.30
2022-11-04T09:18:14.967Z,14.20
2022-11-04T09:33:19.180Z,14.10
2022-11-04T09:48:28.892Z,15.00
2022-11-04T10:03:56.098Z,14.80
2022-11-04T10:19:17.854Z,14.90
2022-11-04T10:34:32.336Z,15.00
2022-11-04T10:50:28.257Z,15.20
2022-11-04T11:05:34.041Z,15.70
2022-11-04T11:20:39.976Z,15.90
2022-11-04T11:35:51.428Z,16.40
2022-11-04T11:50:58.741Z,15.30
2022-11-04T12:21:33.417Z,15.50
2022-11-04T12:36:53.009Z,16.30
2022-11-04T12:52:06.719Z,16.80
2022-11-04T13:07:16.794Z,16.20
2022-11-04T13:22:26.314Z,15.60
2022-11-04T13:37:34.803Z,15.70
2022-11-04T13:52:52.498Z,15.50
2022-11-04T14:08:13.345Z,16.10
2022-11-04T14:23:24.591Z,15.10
2022-11-04T14:38:31.228Z,15.10
2022-11-04T14:53:39.066Z,15.20
2022-11-04T15:08:46.783Z,14.80
2022-11-04T15:23:53.643Z,14.90
2022-11-04T15:38:59.800Z,14.80
2022-11-04T15:54:07.120Z,14.60
2022-11-04T16:09:23.075Z,15.10
2022-11-04T16:24:30.623Z,14.40
2022-11-04T16:39:35.007Z,15.10
2022-11-04T16:54:39.259Z,14.60
2022-11-04T17:09:43.905Z,14.50
2022-11-04T17:24:48.320Z,14.70
2022-11-04T17:39:52.712Z,15.00
2022-11-04T17:54:57.069Z,14.50
2022-11-04T18:10:01.782Z,14.60
2022-11-04T18:25:07.445Z,14.10
2022-11-04T18:40:12.872Z,14.30
2022-11-04T18:55:17.430Z,13.80
2022-11-04T19:10:21.766Z,14.10
2022-11-04T19:25:26.117Z,14.30
2022-11-04T19:40:30.448Z,13.80
2022-11-04T19:55:35.402Z,14.40
2022-11-04T20:10:41.723Z,14.00
2022-11-04T20:25:46.301Z,13.90
2022-11-04T20:40:50.734Z,13.50
2022-11-04T20:55:55.064Z,13.40
2022-11-04T21:11:00.633Z,13.10
2022-11-04T21:26:09.423Z,13.50
2022-11-04T21:41:15.782Z,13.30
2022-11-04T21:56:23.095Z,14.20
2022-11-04T22:11:29.861Z,13.40
2022-11-04T22:26:34.310Z,13.90
2022-11-04T22:41:38.810Z,14.10
2022-11-04T22:56:43.188Z,13.50
2022-11-04T23:12:04.583Z,13.90
2022-11-04T23:27:09.400Z,14.00
2022-11-04T23:42:18.830Z,13.50
2022-11-04T23:57:41.533Z,13.50
